• location
  • image
mod_vvisit_countermod_vvisit_countermod_vvisit_countermod_vvisit_countermod_vvisit_countermod_vvisit_countermod_vvisit_counter
mod_vvisit_counterToday270
mod_vvisit_counterYesterday924
mod_vvisit_counterThis week3237
mod_vvisit_counterLast week4158
mod_vvisit_counterThis month9963
mod_vvisit_counterLast month22275
mod_vvisit_counterAll days1018195

We have: 11 guests online
Your IP: 54.144.100.123
 , 
Today: Nov 16, 2018
Airport / Information for passengers / Rules / Transportation of Pets

Transportation of Pets

 

This section provides the State Food and Veterinary Service in the Republic of Lithuania information on the non-commercial movement of pet dogs, cats and ferrets in the European Union and their importation from the third countries is provided below.


 

The non-commercial movement of pet animals shall be considered as the transportation or movement of pet animals if persons travelling abroad carry their pets along (no more than 5 pet animals) without an intention of selling them abroad.


 

Passengers travelling with pets will find the information provided in Regulation (EC) No. 998/2003 of the European Parliament and of the Council of 26 May 2003 on the animal health requirements applicable to the non-commercial movements of pet animals and amending Council Directive 92/65/EEC and

Regulation (EC) No. 454/2008 454/2008 of the European Parliament and of the Council of 21 May 2008 amending Regulation (EC) No. 998/2003 on the animal health requirements applicable to the non-commercial movements of pet animals, as regards the extension of the transitional period useful.


 

If you travel with your pet animal, please contact your airline for the requirements applicable for such trip.

 

More information on the website of State Food and Veterinary Service


Today

Friday, 16 November 2018

Aviation Weather Forecast

[source: ADDS]
METAR
EYSA 160650Z 16006KT 9999 FEW008 OVC024 04/03 Q1041 R14L/09//95 WHT NOSIG =
TAF EYSA 160508Z 1606/1615 VRB05KT 7000 BKN015 TEMPO 1606/1609 SCT005
TAF
TAF EYSA 160508Z 1606/1615 VRB05KT 7000 BKN015 TEMPO 1606/1609 SCT005 =
SR / SS: 06:02 / 14:23 UTC (EYSA 2018-11-16)

Search

Who's Online

We have 11 guests online

tic logo en